sensor_id;sensor_type;location;lat;lon;timestamp;P1;durP1;ratioP1;P2;durP2;ratioP2
31262;SDS011;17892;52.080;9.006;2024-01-07T00:01:03;7.68;;;3.72;;
31262;SDS011;17892;52.080;9.006;2024-01-07T00:03:28;6.53;;;2.97;;
31262;SDS011;17892;52.080;9.006;2024-01-07T00:05:54;7.55;;;4.03;;
31262;SDS011;17892;52.080;9.006;2024-01-07T00:08:20;6.78;;;3.40;;
31262;SDS011;17892;52.080;9.006;2024-01-07T00:10:46;7.20;;;3.83;;
31262;SDS011;17892;52.080;9.006;2024-01-07T00:13:11;8.10;;;3.53;;
31262;SDS011;17892;52.080;9.006;2024-01-07T00:15:37;5.78;;;3.03;;
31262;SDS011;17892;52.080;9.006;2024-01-07T00:18:03;6.63;;;3.20;;
31262;SDS011;17892;52.080;9.006;2024-01-07T00:20:29;7.38;;;3.85;;
31262;SDS011;17892;52.080;9.006;2024-01-07T00:22:54;10.50;;;5.20;;
31262;SDS011;17892;52.080;9.006;2024-01-07T00:25:21;4.95;;;2.42;;
31262;SDS011;17892;52.080;9.006;2024-01-07T00:27:47;6.88;;;3.72;;
31262;SDS011;17892;52.080;9.006;2024-01-07T00:30:12;7.65;;;4.05;;
31262;SDS011;17892;52.080;9.006;2024-01-07T00:32:38;8.00;;;3.83;;
31262;SDS011;17892;52.080;9.006;2024-01-07T00:35:04;6.78;;;3.83;;
31262;SDS011;17892;52.080;9.006;2024-01-07T00:37:30;7.68;;;4.00;;
31262;SDS011;17892;52.080;9.006;2024-01-07T00:39:56;9.27;;;4.68;;
31262;SDS011;17892;52.080;9.006;2024-01-07T00:42:22;9.38;;;4.63;;
31262;SDS011;17892;52.080;9.006;2024-01-07T00:44:47;10.00;;;4.35;;
31262;SDS011;17892;52.080;9.006;2024-01-07T00:47:13;6.65;;;3.28;;
31262;SDS011;17892;52.080;9.006;2024-01-07T00:49:39;6.70;;;2.97;;
31262;SDS011;17892;52.080;9.006;2024-01-07T00:52:06;6.53;;;3.28;;
31262;SDS011;17892;52.080;9.006;2024-01-07T00:54:32;6.80;;;3.50;;
31262;SDS011;17892;52.080;9.006;2024-01-07T00:56:57;8.10;;;3.60;;
31262;SDS011;17892;52.080;9.006;2024-01-07T00:59:23;6.55;;;3.45;;
31262;SDS011;17892;52.080;9.006;2024-01-07T01:01:49;7.72;;;4.20;;
31262;SDS011;17892;52.080;9.006;2024-01-07T01:04:14;6.82;;;3.85;;
31262;SDS011;17892;52.080;9.006;2024-01-07T01:06:40;6.65;;;3.50;;
31262;SDS011;17892;52.080;9.006;2024-01-07T01:09:06;9.02;;;3.72;;
31262;SDS011;17892;52.080;9.006;2024-01-07T01:11:32;8.18;;;3.00;;
31262;SDS011;17892;52.080;9.006;2024-01-07T01:13:58;7.97;;;3.47;;
31262;SDS011;17892;52.080;9.006;2024-01-07T01:16:23;7.47;;;3.45;;
31262;SDS011;17892;52.080;9.006;2024-01-07T01:18:49;6.78;;;2.85;;
31262;SDS011;17892;52.080;9.006;2024-01-07T01:21:15;7.78;;;3.33;;
31262;SDS011;17892;52.080;9.006;2024-01-07T01:23:41;6.85;;;3.03;;
31262;SDS011;17892;52.080;9.006;2024-01-07T01:26:06;6.30;;;3.05;;
31262;SDS011;17892;52.080;9.006;2024-01-07T01:28:32;7.95;;;3.55;;
31262;SDS011;17892;52.080;9.006;2024-01-07T01:30:58;6.40;;;2.90;;
31262;SDS011;17892;52.080;9.006;2024-01-07T01:33:23;6.00;;;3.25;;
31262;SDS011;17892;52.080;9.006;2024-01-07T01:35:49;6.68;;;3.53;;
31262;SDS011;17892;52.080;9.006;2024-01-07T01:38:15;6.53;;;3.47;;
31262;SDS011;17892;52.080;9.006;2024-01-07T01:40:40;8.27;;;3.78;;
31262;SDS011;17892;52.080;9.006;2024-01-07T01:43:06;9.43;;;3.97;;
31262;SDS011;17892;52.080;9.006;2024-01-07T01:45:32;7.00;;;3.22;;
31262;SDS011;17892;52.080;9.006;2024-01-07T01:47:58;6.93;;;3.40;;
31262;SDS011;17892;52.080;9.006;2024-01-07T01:50:24;8.25;;;4.10;;
31262;SDS011;17892;52.080;9.006;2024-01-07T01:52:49;6.55;;;3.75;;
31262;SDS011;17892;52.080;9.006;2024-01-07T01:55:16;8.27;;;3.80;;
31262;SDS011;17892;52.080;9.006;2024-01-07T01:57:42;8.15;;;3.70;;
31262;SDS011;17892;52.080;9.006;2024-01-07T02:00:09;7.25;;;3.58;;
31262;SDS011;17892;52.080;9.006;2024-01-07T02:02:36;9.18;;;5.22;;
31262;SDS011;17892;52.080;9.006;2024-01-07T02:05:02;9.10;;;3.60;;
31262;SDS011;17892;52.080;9.006;2024-01-07T02:07:29;7.70;;;3.72;;
31262;SDS011;17892;52.080;9.006;2024-01-07T02:09:56;8.90;;;4.07;;
31262;SDS011;17892;52.080;9.006;2024-01-07T02:12:21;7.57;;;4.03;;
31262;SDS011;17892;52.080;9.006;2024-01-07T02:14:47;6.70;;;3.25;;
31262;SDS011;17892;52.080;9.006;2024-01-07T02:17:13;7.63;;;4.10;;
31262;SDS011;17892;52.080;9.006;2024-01-07T02:19:40;7.70;;;4.07;;
31262;SDS011;17892;52.080;9.006;2024-01-07T02:22:06;9.75;;;4.38;;
31262;SDS011;17892;52.080;9.006;2024-01-07T02:24:31;7.85;;;4.05;;
31262;SDS011;17892;52.080;9.006;2024-01-07T02:26:57;10.15;;;4.35;;
31262;SDS011;17892;52.080;9.006;2024-01-07T02:29:27;7.97;;;4.32;;
31262;SDS011;17892;52.080;9.006;2024-01-07T02:31:53;9.07;;;4.00;;
31262;SDS011;17892;52.080;9.006;2024-01-07T02:34:19;11.30;;;4.50;;
31262;SDS011;17892;52.080;9.006;2024-01-07T02:36:44;8.50;;;4.22;;
31262;SDS011;17892;52.080;9.006;2024-01-07T02:39:10;7.97;;;4.22;;
31262;SDS011;17892;52.080;9.006;2024-01-07T02:41:36;7.95;;;4.15;;
31262;SDS011;17892;52.080;9.006;2024-01-07T02:44:02;7.78;;;3.60;;
31262;SDS011;17892;52.080;9.006;2024-01-07T02:46:27;7.68;;;3.75;;
31262;SDS011;17892;52.080;9.006;2024-01-07T02:48:53;9.13;;;4.38;;
31262;SDS011;17892;52.080;9.006;2024-01-07T02:51:18;7.57;;;3.55;;
31262;SDS011;17892;52.080;9.006;2024-01-07T02:53:44;7.05;;;3.67;;
31262;SDS011;17892;52.080;9.006;2024-01-07T02:56:11;6.90;;;3.72;;
31262;SDS011;17892;52.080;9.006;2024-01-07T02:58:36;7.95;;;3.88;;
31262;SDS011;17892;52.080;9.006;2024-01-07T03:01:02;10.50;;;4.75;;
31262;SDS011;17892;52.080;9.006;2024-01-07T03:03:33;8.45;;;4.93;;
31262;SDS011;17892;52.080;9.006;2024-01-07T03:05:59;7.68;;;4.20;;
31262;SDS011;17892;52.080;9.006;2024-01-07T03:08:24;8.50;;;3.90;;
31262;SDS011;17892;52.080;9.006;2024-01-07T03:10:50;9.13;;;4.80;;
31262;SDS011;17892;52.080;9.006;2024-01-07T03:13:16;9.40;;;5.05;;
31262;SDS011;17892;52.080;9.006;2024-01-07T03:15:41;8.32;;;4.20;;
31262;SDS011;17892;52.080;9.006;2024-01-07T03:18:07;9.00;;;4.95;;
31262;SDS011;17892;52.080;9.006;2024-01-07T03:20:33;7.57;;;3.40;;
31262;SDS011;17892;52.080;9.006;2024-01-07T03:23:00;6.60;;;3.03;;
31262;SDS011;17892;52.080;9.006;2024-01-07T03:25:26;7.30;;;4.18;;
31262;SDS011;17892;52.080;9.006;2024-01-07T03:27:51;7.90;;;3.30;;
31262;SDS011;17892;52.080;9.006;2024-01-07T03:30:17;7.32;;;3.58;;
31262;SDS011;17892;52.080;9.006;2024-01-07T03:32:43;6.18;;;2.85;;
31262;SDS011;17892;52.080;9.006;2024-01-07T03:35:08;7.63;;;3.55;;
31262;SDS011;17892;52.080;9.006;2024-01-07T03:37:34;7.38;;;3.75;;
31262;SDS011;17892;52.080;9.006;2024-01-07T03:40:01;7.28;;;3.40;;
31262;SDS011;17892;52.080;9.006;2024-01-07T03:42:27;7.10;;;3.47;;
31262;SDS011;17892;52.080;9.006;2024-01-07T03:44:53;7.38;;;3.67;;
31262;SDS011;17892;52.080;9.006;2024-01-07T03:47:18;5.72;;;3.08;;
31262;SDS011;17892;52.080;9.006;2024-01-07T03:49:44;7.35;;;3.45;;
31262;SDS011;17892;52.080;9.006;2024-01-07T03:52:09;6.13;;;2.92;;
31262;SDS011;17892;52.080;9.006;2024-01-07T03:54:35;5.90;;;2.70;;
31262;SDS011;17892;52.080;9.006;2024-01-07T03:57:01;7.68;;;3.58;;
31262;SDS011;17892;52.080;9.006;2024-01-07T03:59:26;7.20;;;3.50;;
31262;SDS011;17892;52.080;9.006;2024-01-07T04:01:53;5.65;;;2.95;;
31262;SDS011;17892;52.080;9.006;2024-01-07T04:04:21;6.65;;;2.80;;
31262;SDS011;17892;52.080;9.006;2024-01-07T04:06:46;5.93;;;3.20;;
31262;SDS011;17892;52.080;9.006;2024-01-07T04:09:12;7.38;;;3.50;;
31262;SDS011;17892;52.080;9.006;2024-01-07T04:11:41;6.00;;;2.88;;
31262;SDS011;17892;52.080;9.006;2024-01-07T04:14:07;6.75;;;3.38;;
31262;SDS011;17892;52.080;9.006;2024-01-07T04:16:33;7.45;;;2.85;;
31262;SDS011;17892;52.080;9.006;2024-01-07T04:18:59;6.10;;;2.95;;
31262;SDS011;17892;52.080;9.006;2024-01-07T04:21:25;5.32;;;2.75;;
31262;SDS011;17892;52.080;9.006;2024-01-07T04:23:51;6.93;;;3.67;;
31262;SDS011;17892;52.080;9.006;2024-01-07T04:26:16;8.13;;;4.13;;
31262;SDS011;17892;52.080;9.006;2024-01-07T04:28:42;7.82;;;4.28;;
31262;SDS011;17892;52.080;9.006;2024-01-07T04:31:08;9.77;;;4.60;;
31262;SDS011;17892;52.080;9.006;2024-01-07T04:33:34;8.20;;;3.78;;
31262;SDS011;17892;52.080;9.006;2024-01-07T04:36:00;7.18;;;3.63;;
31262;SDS011;17892;52.080;9.006;2024-01-07T04:38:26;7.47;;;3.10;;
31262;SDS011;17892;52.080;9.006;2024-01-07T04:40:52;6.72;;;3.83;;
31262;SDS011;17892;52.080;9.006;2024-01-07T04:43:18;7.93;;;4.10;;
31262;SDS011;17892;52.080;9.006;2024-01-07T04:45:44;7.03;;;3.20;;
31262;SDS011;17892;52.080;9.006;2024-01-07T04:48:10;6.40;;;3.30;;
31262;SDS011;17892;52.080;9.006;2024-01-07T04:50:36;9.45;;;4.18;;
31262;SDS011;17892;52.080;9.006;2024-01-07T04:53:02;8.73;;;4.10;;
31262;SDS011;17892;52.080;9.006;2024-01-07T04:55:28;7.45;;;3.25;;
31262;SDS011;17892;52.080;9.006;2024-01-07T04:57:55;7.55;;;3.50;;
31262;SDS011;17892;52.080;9.006;2024-01-07T05:00:20;7.75;;;4.22;;
31262;SDS011;17892;52.080;9.006;2024-01-07T05:02:46;8.98;;;3.67;;
31262;SDS011;17892;52.080;9.006;2024-01-07T05:05:12;5.75;;;3.03;;
31262;SDS011;17892;52.080;9.006;2024-01-07T05:07:37;7.40;;;2.88;;
31262;SDS011;17892;52.080;9.006;2024-01-07T05:10:03;7.70;;;3.70;;
31262;SDS011;17892;52.080;9.006;2024-01-07T05:12:30;7.38;;;3.47;;
31262;SDS011;17892;52.080;9.006;2024-01-07T05:14:56;6.18;;;2.80;;
31262;SDS011;17892;52.080;9.006;2024-01-07T05:17:21;7.47;;;3.15;;
31262;SDS011;17892;52.080;9.006;2024-01-07T05:19:47;7.00;;;3.33;;
31262;SDS011;17892;52.080;9.006;2024-01-07T05:22:13;6.25;;;2.90;;
31262;SDS011;17892;52.080;9.006;2024-01-07T05:24:38;6.28;;;2.47;;
31262;SDS011;17892;52.080;9.006;2024-01-07T05:27:04;6.43;;;3.42;;
31262;SDS011;17892;52.080;9.006;2024-01-07T05:29:31;5.88;;;2.78;;
31262;SDS011;17892;52.080;9.006;2024-01-07T05:32:00;5.90;;;2.80;;
31262;SDS011;17892;52.080;9.006;2024-01-07T05:34:27;5.68;;;2.42;;
31262;SDS011;17892;52.080;9.006;2024-01-07T05:36:53;6.88;;;3.20;;
31262;SDS011;17892;52.080;9.006;2024-01-07T05:39:19;5.63;;;2.53;;
31262;SDS011;17892;52.080;9.006;2024-01-07T05:41:45;4.70;;;2.50;;
31262;SDS011;17892;52.080;9.006;2024-01-07T05:44:11;5.93;;;2.80;;
31262;SDS011;17892;52.080;9.006;2024-01-07T05:46:40;5.50;;;2.78;;
31262;SDS011;17892;52.080;9.006;2024-01-07T05:49:06;5.15;;;2.80;;
31262;SDS011;17892;52.080;9.006;2024-01-07T05:51:33;6.93;;;2.88;;
31262;SDS011;17892;52.080;9.006;2024-01-07T05:53:58;5.75;;;2.60;;
31262;SDS011;17892;52.080;9.006;2024-01-07T05:56:24;5.65;;;2.05;;
31262;SDS011;17892;52.080;9.006;2024-01-07T05:58:50;5.53;;;2.35;;
31262;SDS011;17892;52.080;9.006;2024-01-07T06:01:19;4.20;;;1.90;;
31262;SDS011;17892;52.080;9.006;2024-01-07T06:03:46;5.13;;;2.40;;
31262;SDS011;17892;52.080;9.006;2024-01-07T06:06:12;5.13;;;1.70;;
31262;SDS011;17892;52.080;9.006;2024-01-07T06:08:40;4.78;;;2.08;;
31262;SDS011;17892;52.080;9.006;2024-01-07T06:11:07;5.05;;;2.17;;
31262;SDS011;17892;52.080;9.006;2024-01-07T06:13:33;3.75;;;1.85;;
31262;SDS011;17892;52.080;9.006;2024-01-07T06:15:59;5.68;;;2.15;;
31262;SDS011;17892;52.080;9.006;2024-01-07T06:18:25;4.78;;;1.75;;
31262;SDS011;17892;52.080;9.006;2024-01-07T06:20:50;5.18;;;2.25;;
31262;SDS011;17892;52.080;9.006;2024-01-07T06:23:16;3.55;;;1.70;;
31262;SDS011;17892;52.080;9.006;2024-01-07T06:25:42;3.88;;;2.10;;
31262;SDS011;17892;52.080;9.006;2024-01-07T06:28:08;5.25;;;2.03;;
31262;SDS011;17892;52.080;9.006;2024-01-07T06:30:35;6.57;;;1.90;;
31262;SDS011;17892;52.080;9.006;2024-01-07T06:33:01;4.55;;;1.70;;
31262;SDS011;17892;52.080;9.006;2024-01-07T06:35:26;4.32;;;1.88;;
31262;SDS011;17892;52.080;9.006;2024-01-07T06:37:52;3.95;;;1.80;;
31262;SDS011;17892;52.080;9.006;2024-01-07T06:40:18;4.28;;;1.92;;
31262;SDS011;17892;52.080;9.006;2024-01-07T06:42:45;3.47;;;1.52;;
31262;SDS011;17892;52.080;9.006;2024-01-07T06:45:12;4.60;;;1.70;;
31262;SDS011;17892;52.080;9.006;2024-01-07T06:47:39;3.50;;;1.50;;
31262;SDS011;17892;52.080;9.006;2024-01-07T06:50:05;3.88;;;1.90;;
31262;SDS011;17892;52.080;9.006;2024-01-07T06:52:31;3.58;;;1.80;;
31262;SDS011;17892;52.080;9.006;2024-01-07T06:54:57;3.97;;;1.45;;
31262;SDS011;17892;52.080;9.006;2024-01-07T06:57:23;3.38;;;1.48;;
31262;SDS011;17892;52.080;9.006;2024-01-07T06:59:48;3.22;;;1.35;;
31262;SDS011;17892;52.080;9.006;2024-01-07T07:02:14;3.38;;;1.15;;
31262;SDS011;17892;52.080;9.006;2024-01-07T07:04:40;3.67;;;1.58;;
31262;SDS011;17892;52.080;9.006;2024-01-07T07:07:06;3.78;;;1.70;;
31262;SDS011;17892;52.080;9.006;2024-01-07T07:09:31;4.30;;;1.60;;
31262;SDS011;17892;52.080;9.006;2024-01-07T07:11:58;3.88;;;1.58;;
31262;SDS011;17892;52.080;9.006;2024-01-07T07:14:23;5.65;;;1.95;;
31262;SDS011;17892;52.080;9.006;2024-01-07T07:16:49;4.32;;;1.60;;
31262;SDS011;17892;52.080;9.006;2024-01-07T07:19:15;4.57;;;1.98;;
31262;SDS011;17892;52.080;9.006;2024-01-07T07:21:41;3.45;;;1.60;;
31262;SDS011;17892;52.080;9.006;2024-01-07T07:24:09;3.92;;;1.90;;
31262;SDS011;17892;52.080;9.006;2024-01-07T07:26:35;3.42;;;1.63;;
31262;SDS011;17892;52.080;9.006;2024-01-07T07:29:05;3.88;;;1.55;;
31262;SDS011;17892;52.080;9.006;2024-01-07T07:31:35;5.15;;;1.83;;
31262;SDS011;17892;52.080;9.006;2024-01-07T07:34:04;5.22;;;1.80;;
31262;SDS011;17892;52.080;9.006;2024-01-07T07:36:30;3.72;;;1.90;;
31262;SDS011;17892;52.080;9.006;2024-01-07T07:38:57;3.45;;;1.38;;
31262;SDS011;17892;52.080;9.006;2024-01-07T07:41:22;3.72;;;1.70;;
31262;SDS011;17892;52.080;9.006;2024-01-07T07:43:48;4.63;;;1.23;;
31262;SDS011;17892;52.080;9.006;2024-01-07T07:46:14;5.38;;;1.55;;
31262;SDS011;17892;52.080;9.006;2024-01-07T07:48:41;4.00;;;1.70;;
31262;SDS011;17892;52.080;9.006;2024-01-07T07:51:06;3.85;;;1.40;;
31262;SDS011;17892;52.080;9.006;2024-01-07T07:53:32;3.55;;;1.73;;
31262;SDS011;17892;52.080;9.006;2024-01-07T07:55:58;3.08;;;1.20;;
31262;SDS011;17892;52.080;9.006;2024-01-07T07:58:24;5.82;;;1.80;;
31262;SDS011;17892;52.080;9.006;2024-01-07T08:00:50;4.72;;;1.58;;
31262;SDS011;17892;52.080;9.006;2024-01-07T08:03:16;3.67;;;1.73;;
31262;SDS011;17892;52.080;9.006;2024-01-07T08:05:41;5.05;;;1.67;;
31262;SDS011;17892;52.080;9.006;2024-01-07T08:08:07;3.17;;;1.40;;
31262;SDS011;17892;52.080;9.006;2024-01-07T08:10:33;3.55;;;1.60;;
31262;SDS011;17892;52.080;9.006;2024-01-07T08:13:00;4.28;;;1.85;;
31262;SDS011;17892;52.080;9.006;2024-01-07T08:15:26;5.47;;;1.90;;
31262;SDS011;17892;52.080;9.006;2024-01-07T08:17:51;4.03;;;1.88;;
31262;SDS011;17892;52.080;9.006;2024-01-07T08:20:17;3.33;;;1.30;;
31262;SDS011;17892;52.080;9.006;2024-01-07T08:22:44;10.95;;;2.03;;
31262;SDS011;17892;52.080;9.006;2024-01-07T08:25:09;3.38;;;1.50;;
31262;SDS011;17892;52.080;9.006;2024-01-07T08:27:36;5.65;;;1.58;;
31262;SDS011;17892;52.080;9.006;2024-01-07T08:30:02;4.93;;;2.05;;
31262;SDS011;17892;52.080;9.006;2024-01-07T08:32:29;3.30;;;1.50;;
31262;SDS011;17892;52.080;9.006;2024-01-07T08:34:54;4.07;;;1.63;;
31262;SDS011;17892;52.080;9.006;2024-01-07T08:37:20;4.03;;;1.38;;
31262;SDS011;17892;52.080;9.006;2024-01-07T08:39:46;3.63;;;1.45;;
31262;SDS011;17892;52.080;9.006;2024-01-07T08:42:11;3.63;;;1.40;;
31262;SDS011;17892;52.080;9.006;2024-01-07T08:44:39;4.85;;;1.52;;
31262;SDS011;17892;52.080;9.006;2024-01-07T08:47:04;3.35;;;1.40;;
31262;SDS011;17892;52.080;9.006;2024-01-07T08:49:30;3.97;;;1.35;;
31262;SDS011;17892;52.080;9.006;2024-01-07T08:51:59;5.22;;;1.40;;
31262;SDS011;17892;52.080;9.006;2024-01-07T08:54:25;3.45;;;1.38;;
31262;SDS011;17892;52.080;9.006;2024-01-07T08:56:51;3.53;;;1.65;;
31262;SDS011;17892;52.080;9.006;2024-01-07T08:59:16;3.33;;;1.42;;
31262;SDS011;17892;52.080;9.006;2024-01-07T09:01:42;3.55;;;1.20;;
31262;SDS011;17892;52.080;9.006;2024-01-07T09:04:08;3.47;;;1.50;;
31262;SDS011;17892;52.080;9.006;2024-01-07T09:06:33;3.72;;;1.42;;
31262;SDS011;17892;52.080;9.006;2024-01-07T09:08:59;4.45;;;1.50;;
31262;SDS011;17892;52.080;9.006;2024-01-07T09:11:25;3.80;;;1.70;;
31262;SDS011;17892;52.080;9.006;2024-01-07T09:13:51;3.45;;;1.40;;
31262;SDS011;17892;52.080;9.006;2024-01-07T09:16:16;3.80;;;1.67;;
31262;SDS011;17892;52.080;9.006;2024-01-07T09:18:42;2.83;;;1.20;;
31262;SDS011;17892;52.080;9.006;2024-01-07T09:21:11;4.25;;;1.35;;
31262;SDS011;17892;52.080;9.006;2024-01-07T09:23:37;3.88;;;1.63;;
31262;SDS011;17892;52.080;9.006;2024-01-07T09:26:03;4.35;;;1.55;;
31262;SDS011;17892;52.080;9.006;2024-01-07T09:28:28;2.92;;;1.13;;
31262;SDS011;17892;52.080;9.006;2024-01-07T09:30:54;2.83;;;1.30;;
31262;SDS011;17892;52.080;9.006;2024-01-07T09:33:20;3.10;;;1.38;;
31262;SDS011;17892;52.080;9.006;2024-01-07T09:35:48;5.10;;;2.00;;
31262;SDS011;17892;52.080;9.006;2024-01-07T09:38:16;4.05;;;1.70;;
31262;SDS011;17892;52.080;9.006;2024-01-07T09:40:42;5.40;;;1.50;;
31262;SDS011;17892;52.080;9.006;2024-01-07T09:43:08;3.30;;;1.23;;
31262;SDS011;17892;52.080;9.006;2024-01-07T09:45:36;2.88;;;1.40;;
31262;SDS011;17892;52.080;9.006;2024-01-07T09:48:04;4.38;;;1.77;;
31262;SDS011;17892;52.080;9.006;2024-01-07T09:50:30;5.10;;;1.85;;
31262;SDS011;17892;52.080;9.006;2024-01-07T09:52:56;6.20;;;2.05;;
31262;SDS011;17892;52.080;9.006;2024-01-07T09:55:37;3.55;;;1.30;;
31262;SDS011;17892;52.080;9.006;2024-01-07T09:58:13;2.72;;;1.15;;
31262;SDS011;17892;52.080;9.006;2024-01-07T10:00:39;3.15;;;1.40;;
31262;SDS011;17892;52.080;9.006;2024-01-07T10:03:05;2.58;;;1.17;;
31262;SDS011;17892;52.080;9.006;2024-01-07T10:05:30;3.25;;;1.52;;
31262;SDS011;17892;52.080;9.006;2024-01-07T10:07:56;4.25;;;1.73;;
31262;SDS011;17892;52.080;9.006;2024-01-07T10:10:22;3.83;;;1.50;;
31262;SDS011;17892;52.080;9.006;2024-01-07T10:12:48;5.07;;;1.98;;
31262;SDS011;17892;52.080;9.006;2024-01-07T10:15:14;3.83;;;1.20;;
31262;SDS011;17892;52.080;9.006;2024-01-07T10:17:41;2.47;;;1.13;;
31262;SDS011;17892;52.080;9.006;2024-01-07T10:20:07;4.38;;;1.40;;
31262;SDS011;17892;52.080;9.006;2024-01-07T10:22:37;3.53;;;1.52;;
31262;SDS011;17892;52.080;9.006;2024-01-07T10:25:03;3.50;;;1.40;;
31262;SDS011;17892;52.080;9.006;2024-01-07T10:27:29;5.53;;;1.60;;
31262;SDS011;17892;52.080;9.006;2024-01-07T10:29:58;3.58;;;1.60;;
31262;SDS011;17892;52.080;9.006;2024-01-07T10:32:24;3.30;;;1.60;;
31262;SDS011;17892;52.080;9.006;2024-01-07T10:34:50;3.90;;;1.50;;
31262;SDS011;17892;52.080;9.006;2024-01-07T10:37:29;3.58;;;1.60;;
31262;SDS011;17892;52.080;9.006;2024-01-07T10:39:59;3.03;;;1.30;;
31262;SDS011;17892;52.080;9.006;2024-01-07T10:42:32;2.67;;;1.25;;
31262;SDS011;17892;52.080;9.006;2024-01-07T10:45:02;4.25;;;1.85;;
31262;SDS011;17892;52.080;9.006;2024-01-07T10:47:29;3.25;;;1.55;;
31262;SDS011;17892;52.080;9.006;2024-01-07T10:49:59;3.78;;;1.73;;
31262;SDS011;17892;52.080;9.006;2024-01-07T10:52:28;6.00;;;2.20;;
31262;SDS011;17892;52.080;9.006;2024-01-07T10:54:57;4.78;;;1.73;;
31262;SDS011;17892;52.080;9.006;2024-01-07T10:57:34;4.53;;;1.80;;
31262;SDS011;17892;52.080;9.006;2024-01-07T11:00:15;4.43;;;1.92;;
31262;SDS011;17892;52.080;9.006;2024-01-07T11:05:39;3.13;;;1.52;;
31262;SDS011;17892;52.080;9.006;2024-01-07T11:08:13;5.13;;;2.13;;
31262;SDS011;17892;52.080;9.006;2024-01-07T11:11:25;6.03;;;2.05;;
31262;SDS011;17892;52.080;9.006;2024-01-07T11:13:53;4.35;;;2.17;;
31262;SDS011;17892;52.080;9.006;2024-01-07T11:16:41;4.28;;;1.70;;
31262;SDS011;17892;52.080;9.006;2024-01-07T11:19:14;4.93;;;2.03;;
31262;SDS011;17892;52.080;9.006;2024-01-07T11:21:40;3.53;;;1.70;;
31262;SDS011;17892;52.080;9.006;2024-01-07T11:24:05;5.03;;;1.88;;
31262;SDS011;17892;52.080;9.006;2024-01-07T11:26:31;4.28;;;1.65;;
31262;SDS011;17892;52.080;9.006;2024-01-07T11:28:57;3.13;;;1.40;;
31262;SDS011;17892;52.080;9.006;2024-01-07T11:34:04;3.53;;;1.52;;
31262;SDS011;17892;52.080;9.006;2024-01-07T11:36:29;3.55;;;1.88;;
31262;SDS011;17892;52.080;9.006;2024-01-07T11:38:55;3.17;;;1.40;;
31262;SDS011;17892;52.080;9.006;2024-01-07T11:41:22;3.63;;;1.58;;
31262;SDS011;17892;52.080;9.006;2024-01-07T11:46:27;3.25;;;1.40;;
31262;SDS011;17892;52.080;9.006;2024-01-07T11:48:58;4.50;;;1.60;;
31262;SDS011;17892;52.080;9.006;2024-01-07T11:51:25;3.08;;;1.48;;
31262;SDS011;17892;52.080;9.006;2024-01-07T11:53:52;3.60;;;1.60;;
31262;SDS011;17892;52.080;9.006;2024-01-07T11:56:18;4.45;;;1.88;;
31262;SDS011;17892;52.080;9.006;2024-01-07T11:58:44;3.42;;;1.55;;
31262;SDS011;17892;52.080;9.006;2024-01-07T12:01:10;3.75;;;1.58;;
31262;SDS011;17892;52.080;9.006;2024-01-07T12:03:35;3.70;;;1.50;;
31262;SDS011;17892;52.080;9.006;2024-01-07T12:06:01;3.78;;;1.67;;
31262;SDS011;17892;52.080;9.006;2024-01-07T12:08:29;3.33;;;1.30;;
31262;SDS011;17892;52.080;9.006;2024-01-07T12:10:55;3.10;;;1.42;;
31262;SDS011;17892;52.080;9.006;2024-01-07T12:13:22;2.72;;;1.52;;
31262;SDS011;17892;52.080;9.006;2024-01-07T12:15:47;4.72;;;1.52;;
31262;SDS011;17892;52.080;9.006;2024-01-07T12:18:13;3.65;;;1.50;;
31262;SDS011;17892;52.080;9.006;2024-01-07T12:20:39;2.90;;;1.40;;
31262;SDS011;17892;52.080;9.006;2024-01-07T12:23:06;2.90;;;1.35;;
31262;SDS011;17892;52.080;9.006;2024-01-07T12:25:33;4.55;;;1.50;;
31262;SDS011;17892;52.080;9.006;2024-01-07T12:28:00;4.55;;;1.80;;
31262;SDS011;17892;52.080;9.006;2024-01-07T12:30:27;3.33;;;1.55;;
31262;SDS011;17892;52.080;9.006;2024-01-07T12:32:52;3.72;;;1.55;;
31262;SDS011;17892;52.080;9.006;2024-01-07T12:35:19;3.33;;;1.27;;
31262;SDS011;17892;52.080;9.006;2024-01-07T12:37:45;2.85;;;1.30;;
31262;SDS011;17892;52.080;9.006;2024-01-07T12:40:11;4.18;;;1.60;;
31262;SDS011;17892;52.080;9.006;2024-01-07T12:42:37;3.25;;;1.77;;
31262;SDS011;17892;52.080;9.006;2024-01-07T12:45:09;3.75;;;1.35;;
31262;SDS011;17892;52.080;9.006;2024-01-07T12:47:39;3.35;;;1.42;;
31262;SDS011;17892;52.080;9.006;2024-01-07T12:50:09;3.35;;;1.40;;
31262;SDS011;17892;52.080;9.006;2024-01-07T12:52:36;4.25;;;1.38;;
31262;SDS011;17892;52.080;9.006;2024-01-07T12:55:03;3.42;;;1.38;;
31262;SDS011;17892;52.080;9.006;2024-01-07T12:57:29;4.70;;;1.85;;
31262;SDS011;17892;52.080;9.006;2024-01-07T12:59:55;3.47;;;1.33;;
31262;SDS011;17892;52.080;9.006;2024-01-07T13:02:21;3.13;;;1.15;;
31262;SDS011;17892;52.080;9.006;2024-01-07T13:04:46;3.13;;;1.27;;
31262;SDS011;17892;52.080;9.006;2024-01-07T13:07:12;3.92;;;1.70;;
31262;SDS011;17892;52.080;9.006;2024-01-07T13:09:38;4.40;;;1.50;;
31262;SDS011;17892;52.080;9.006;2024-01-07T13:12:04;4.38;;;1.75;;
31262;SDS011;17892;52.080;9.006;2024-01-07T13:14:30;4.55;;;1.55;;
31262;SDS011;17892;52.080;9.006;2024-01-07T13:16:55;3.45;;;1.40;;
31262;SDS011;17892;52.080;9.006;2024-01-07T13:19:21;3.60;;;1.50;;
31262;SDS011;17892;52.080;9.006;2024-01-07T13:21:47;5.47;;;2.05;;
31262;SDS011;17892;52.080;9.006;2024-01-07T13:24:13;4.40;;;1.90;;
31262;SDS011;17892;52.080;9.006;2024-01-07T13:26:38;3.03;;;1.38;;
31262;SDS011;17892;52.080;9.006;2024-01-07T13:29:06;4.80;;;2.10;;
31262;SDS011;17892;52.080;9.006;2024-01-07T13:31:32;3.05;;;1.50;;
31262;SDS011;17892;52.080;9.006;2024-01-07T13:33:58;4.30;;;1.48;;
31262;SDS011;17892;52.080;9.006;2024-01-07T13:36:24;4.65;;;2.08;;
31262;SDS011;17892;52.080;9.006;2024-01-07T13:38:50;4.38;;;1.70;;
31262;SDS011;17892;52.080;9.006;2024-01-07T13:41:16;3.30;;;1.42;;
31262;SDS011;17892;52.080;9.006;2024-01-07T13:43:42;3.38;;;1.38;;
31262;SDS011;17892;52.080;9.006;2024-01-07T13:46:08;3.92;;;1.48;;
31262;SDS011;17892;52.080;9.006;2024-01-07T13:48:34;3.33;;;1.38;;
31262;SDS011;17892;52.080;9.006;2024-01-07T13:51:00;4.25;;;1.35;;
31262;SDS011;17892;52.080;9.006;2024-01-07T13:53:27;3.33;;;1.58;;
31262;SDS011;17892;52.080;9.006;2024-01-07T13:55:54;4.55;;;2.00;;
31262;SDS011;17892;52.080;9.006;2024-01-07T13:58:20;4.80;;;1.52;;
31262;SDS011;17892;52.080;9.006;2024-01-07T14:00:46;3.08;;;1.65;;
31262;SDS011;17892;52.080;9.006;2024-01-07T14:03:12;4.57;;;1.63;;
31262;SDS011;17892;52.080;9.006;2024-01-07T14:05:38;4.30;;;1.60;;
31262;SDS011;17892;52.080;9.006;2024-01-07T14:08:04;3.53;;;1.70;;
31262;SDS011;17892;52.080;9.006;2024-01-07T14:10:31;3.47;;;1.42;;
31262;SDS011;17892;52.080;9.006;2024-01-07T14:12:57;4.45;;;1.63;;
31262;SDS011;17892;52.080;9.006;2024-01-07T14:15:23;4.50;;;1.77;;
31262;SDS011;17892;52.080;9.006;2024-01-07T14:17:48;2.85;;;1.45;;
31262;SDS011;17892;52.080;9.006;2024-01-07T14:20:14;3.85;;;1.60;;
31262;SDS011;17892;52.080;9.006;2024-01-07T14:22:40;2.97;;;1.20;;
31262;SDS011;17892;52.080;9.006;2024-01-07T14:25:05;3.00;;;1.52;;
31262;SDS011;17892;52.080;9.006;2024-01-07T14:27:32;2.20;;;1.05;;
31262;SDS011;17892;52.080;9.006;2024-01-07T14:29:57;3.85;;;1.48;;
31262;SDS011;17892;52.080;9.006;2024-01-07T14:32:23;2.60;;;1.25;;
31262;SDS011;17892;52.080;9.006;2024-01-07T14:34:49;4.28;;;1.50;;
31262;SDS011;17892;52.080;9.006;2024-01-07T14:37:16;2.30;;;0.85;;
31262;SDS011;17892;52.080;9.006;2024-01-07T14:39:41;3.92;;;1.73;;
31262;SDS011;17892;52.080;9.006;2024-01-07T14:42:07;2.88;;;1.00;;
31262;SDS011;17892;52.080;9.006;2024-01-07T14:44:34;2.33;;;1.02;;
31262;SDS011;17892;52.080;9.006;2024-01-07T14:46:59;3.28;;;1.27;;
31262;SDS011;17892;52.080;9.006;2024-01-07T14:49:25;3.00;;;1.23;;
31262;SDS011;17892;52.080;9.006;2024-01-07T14:51:51;4.75;;;1.63;;